Historyczne dane pomiarowe

Dodano dane terminowe – wersja testowa.

Dane z okresu 1951-2019

Wersja bazy: 1.34 [2019-03-16, lista zmian], aktualizacja planowana na 2019-04-15

Dane meteo z obszaru Polski uzyskane na podstawie danych udostępnionych przez Instytut Meteorologii i Gospodarki Wodnej – Państwowy Instytut Badawczy.

 

Wybierz Datę:    

       

TemperaturaWilgotnośćWiatrCiśnienieOpadyŚniegCzas trwania zjawisk
 Stacja t tx tn tng RH VA  wxwx mslp ppp RRR   cm mm wxwxwxwxwxwxwx
1956-10-11 7.9 11.0 4.4- 87.3- 7.7 5.0---- 0.0------------
1956-10-12 9.3 11.1 8.4- 86.5- 8.0 4.3---- 0.0------------
1956-10-13 10.0 10.8 7.9- 72.0- 7.0 7.3---- 17.6------------
1956-10-14 6.6 9.8 4.4- 81.5- 1.7 8.0---- 0.0------------
1956-10-15 6.4 11.3 3.5- 83.0- 1.3 4.3---- 0.0------------
1956-10-16 3.8 10.8 0.9- 89.3- 2.0 2.0---- 0.0------------
1956-10-17 6.0 13.0 -1.9- 82.0- 0.0 1.7---- 0.0------------
1956-10-18 7.8 9.4 3.1- 93.3- 7.3 2.3---- 1.0------------
1956-10-19 8.6 12.4 4.1- 94.3- 5.3 3.7---- 1.6------------
1956-10-20 8.2 10.3 2.7- 93.3- 7.3 3.3---- 0.9------------
1956-10-21 12.0 14.6 6.0- 85.3- 8.0 3.7---- 0.0------------
1956-10-22 10.8 13.6 10.4- 81.3- 6.7 6.0---- 0.0------------
1956-10-23 9.4 10.7 8.0- 87.5- 8.0 3.3---- 0.0------------
1956-10-24 10.8 13.6 7.6- 94.3- 6.7 2.7---- 0.3------------
1956-10-25 11.1 13.9 7.3- 87.8- 7.3 3.0---- 0.5------------
1956-10-26 7.7 11.5 6.9- 96.8- 8.0 1.0---- 3.0------------
1956-10-27 7.8 8.4 6.3- 96.8- 8.0 2.7---- 1.1------------
1956-10-28 7.2 8.6 6.0- 95.5- 8.0 6.0---- 15.0------------
1956-10-29 -0.6 6.4 -1.4- 90.5- 8.0 4.7---- 1.7-- 2---------
1956-10-30 -3.5 -1.0 -4.4- 90.5- 8.0 4.0---- 0.0------------
1956-10-31 -4.2 -1.4-10.4- 79.0- 2.7 2.7---- 0.2------------
1956-11-01 0.7 1.4 -3.3- 89.5- 8.0 7.0---- 6.8-- 1---------
1956-11-02 0.2 4.2 -2.4- 84.3- 2.7 1.0---- 0.0------------
1956-11-03 0.4 2.9 -2.6- 85.3- 7.7 0.7---- 0.0------------
1956-11-04 0.4 4.2 -2.4- 80.3- 3.0 4.0---- 0.0------------
1956-11-05 1.5 5.1 -0.5- 91.3- 5.3 5.3---- 9.1------------
1956-11-06 -0.4 0.8 -1.8- 79.0- 5.0 4.0---- 0.4-- 11---------
1956-11-07 -6.0 -0.2 -9.5- 71.3- 2.3 3.3---- 0.0-- 7---------
1956-11-08 -5.2 -1.7-11.2- 78.3- 0.0 1.3---- 0.0-- 5---------
1956-11-09 -7.0 -1.1-11.6- 80.0- 5.3 1.0---- 0.0-- 5---------
115.0 ms

 

Źródłem pochodzenia danych jest Instytut Meteorologii i Gospodarki Wodnej – Państwowy Instytut Badawczy. Dane Instytutu Meteorologii i Gospodarki Wodnej – Państwowego Instytutu Badawczego zostały przetworzone.

Dane źródłowe można odnaleźć na stronie https://dane.imgw.pl